Salem, SC (29676)

3:36 PM EST on January 22, 2017 (GMT -0500)
N4ARZ - Keowee Key | | Change Station

Elev 860 ft 34.82 °N, 82.93 °W | Updated 2 seconds ago

Overcast
Overcast
57.6 °F
Feels Like 57.6 °F
N
0.0
Wind Variable Wind from WSW
Gusts 3.0 mph

Today
High -- | Low -- °F
--% Chance of Precip.
Yesterday
High -- | Low -- °F
Precip. -- in
Pressure 29.43 in
Visibility 10.0 miles
Clouds Overcast 900 ft
Dew Point 56 °F
Humidity 96%
Rainfall 0.14 in
Snow Depth Not available.
7:36 AM 5:51 PM
Waning Crescent, 24% visible
METAR KCEU 221954Z AUTO 06005KT 10SM OVC009 16/13 A2944 RMK AO2 CIG 008V012 SLP965 T01610133
Pressure 29.43 in
Visibility 10.0 miles
Clouds Overcast 900 ft
Dew Point 56 °F
Humidity 96%
Rainfall 0.14 in
Snow Depth Not available.
7:36 AM 5:51 PM
Waning Crescent, 24% visible
METAR KCEU 221954Z AUTO 06005KT 10SM OVC009 16/13 A2944 RMK AO2 CIG 008V012 SLP965 T01610133

Get Your Daily Forecast Email!

Thanks for signing up!

Be on the lookout for a verification email in your inbox.

You'll start receiving the daily forecast at 8 AM.

×

10-Day Weather Forecast

Almanac

Astronomy

Jan. 22, 2017 Rise Set
Actual Time
Civil Twilight
Nautical Twilight
Astronomical Twilight
Moon
Length of Visible Light
Length of Day
Tomorrow will be .
, % of the Moon is Illuminated

Today's Extremes

State Highs State Lows

Community

WunderPhotos

Upload Photos

1,962,540 photos uploaded!

WunderBlog® & News

Nearby

Air Quality

  Air Quality AQ Index Pollutant
Not available.

Snow Depth

Station Depth Elevation

Earthquake Activity

City Distance Mag. Time & Date
Minimum magnitude displayed is 2.5.

Coastal Water Temperatures

Place Temperature

Stations

Nearby Weather Stations

Station Location Temp. Windchill Dew Point Humidity Wind Precip. Elev Updated Type
                   

Watches & Warnings

There are currently no watches in effect.